sensor_id;sensor_type;location;lat;lon;timestamp;pressure;altitude;pressure_sealevel;temperature;humidity
49311;BME280;35177;45.900;5.946;2023-06-19T00:01:42;97460.75;;;21.05;52.69
49311;BME280;35177;45.900;5.946;2023-06-19T00:04:09;97467.44;;;20.60;56.52
49311;BME280;35177;45.900;5.946;2023-06-19T00:06:34;97465.91;;;20.50;56.79
49311;BME280;35177;45.900;5.946;2023-06-19T00:09:00;97471.97;;;20.60;57.36
49311;BME280;35177;45.900;5.946;2023-06-19T00:11:25;97478.72;;;20.72;57.35
49311;BME280;35177;45.900;5.946;2023-06-19T00:13:51;97494.00;;;20.71;58.05
49311;BME280;35177;45.900;5.946;2023-06-19T00:16:16;97490.13;;;20.82;56.76
49311;BME280;35177;45.900;5.946;2023-06-19T00:18:41;97489.28;;;20.73;57.96
49311;BME280;35177;45.900;5.946;2023-06-19T00:21:08;97495.84;;;20.63;58.03
49311;BME280;35177;45.900;5.946;2023-06-19T00:23:33;97493.75;;;20.25;60.29
49311;BME280;35177;45.900;5.946;2023-06-19T00:25:59;97493.78;;;20.33;58.94
49311;BME280;35177;45.900;5.946;2023-06-19T00:28:27;97503.84;;;20.39;58.88
49311;BME280;35177;45.900;5.946;2023-06-19T00:30:53;97512.72;;;20.31;59.52
49311;BME280;35177;45.900;5.946;2023-06-19T00:33:18;97505.75;;;20.13;60.92
49311;BME280;35177;45.900;5.946;2023-06-19T00:35:44;97511.03;;;19.55;63.79
49311;BME280;35177;45.900;5.946;2023-06-19T00:38:09;97517.53;;;19.78;62.71
49311;BME280;35177;45.900;5.946;2023-06-19T00:40:35;97519.28;;;19.61;63.89
49311;BME280;35177;45.900;5.946;2023-06-19T00:43:01;97510.25;;;19.62;64.52
49311;BME280;35177;45.900;5.946;2023-06-19T00:45:27;97518.00;;;19.73;64.91
49311;BME280;35177;45.900;5.946;2023-06-19T00:47:54;97520.69;;;19.73;64.87
49311;BME280;35177;45.900;5.946;2023-06-19T00:50:23;97533.16;;;19.82;64.81
49311;BME280;35177;45.900;5.946;2023-06-19T00:52:49;97524.47;;;19.88;64.51
49311;BME280;35177;45.900;5.946;2023-06-19T00:55:15;97529.66;;;19.56;65.27
49311;BME280;35177;45.900;5.946;2023-06-19T00:57:41;97532.69;;;19.61;65.71
49311;BME280;35177;45.900;5.946;2023-06-19T01:00:08;97543.19;;;19.72;65.02
49311;BME280;35177;45.900;5.946;2023-06-19T01:02:35;97537.59;;;19.40;66.51
49311;BME280;35177;45.900;5.946;2023-06-19T01:05:00;97542.28;;;19.64;65.76
49311;BME280;35177;45.900;5.946;2023-06-19T01:07:44;97543.97;;;19.39;66.87
49311;BME280;35177;45.900;5.946;2023-06-19T01:10:17;97545.28;;;19.35;66.67
49311;BME280;35177;45.900;5.946;2023-06-19T01:12:49;97537.59;;;19.40;67.30
49311;BME280;35177;45.900;5.946;2023-06-19T01:15:17;97537.31;;;19.25;67.95
49311;BME280;35177;45.900;5.946;2023-06-19T01:17:45;97540.22;;;19.14;68.72
49311;BME280;35177;45.900;5.946;2023-06-19T01:20:12;97533.69;;;19.17;68.57
49311;BME280;35177;45.900;5.946;2023-06-19T01:22:37;97532.16;;;19.14;68.94
49311;BME280;35177;45.900;5.946;2023-06-19T01:25:03;97533.13;;;19.31;66.33
49311;BME280;35177;45.900;5.946;2023-06-19T01:27:30;97534.28;;;19.46;67.71
49311;BME280;35177;45.900;5.946;2023-06-19T01:29:57;97527.06;;;19.03;68.56
49311;BME280;35177;45.900;5.946;2023-06-19T01:35:09;97522.94;;;19.09;68.08
49311;BME280;35177;45.900;5.946;2023-06-19T01:37:38;97521.00;;;19.19;68.06
49311;BME280;35177;45.900;5.946;2023-06-19T01:40:06;97522.38;;;19.23;68.35
49311;BME280;35177;45.900;5.946;2023-06-19T01:42:36;97517.22;;;19.29;68.20
49311;BME280;35177;45.900;5.946;2023-06-19T01:45:03;97511.47;;;19.24;68.58
49311;BME280;35177;45.900;5.946;2023-06-19T01:47:29;97515.34;;;18.87;69.43
49311;BME280;35177;45.900;5.946;2023-06-19T01:49:54;97507.91;;;18.98;68.98
49311;BME280;35177;45.900;5.946;2023-06-19T01:52:20;97509.22;;;19.12;67.79
49311;BME280;35177;45.900;5.946;2023-06-19T01:54:45;97508.63;;;18.83;70.36
49311;BME280;35177;45.900;5.946;2023-06-19T01:57:11;97502.50;;;18.72;70.70
49311;BME280;35177;45.900;5.946;2023-06-19T01:59:37;97505.13;;;18.64;71.03
49311;BME280;35177;45.900;5.946;2023-06-19T02:02:03;97503.56;;;18.44;72.09
49311;BME280;35177;45.900;5.946;2023-06-19T02:04:29;97502.94;;;18.68;71.27
49311;BME280;35177;45.900;5.946;2023-06-19T02:06:55;97497.19;;;18.98;68.86
49311;BME280;35177;45.900;5.946;2023-06-19T02:09:20;97489.63;;;18.76;70.44
49311;BME280;35177;45.900;5.946;2023-06-19T02:11:46;97489.06;;;18.37;71.38
49311;BME280;35177;45.900;5.946;2023-06-19T02:14:11;97483.25;;;18.42;71.41
49311;BME280;35177;45.900;5.946;2023-06-19T02:16:37;97479.22;;;18.55;71.84
49311;BME280;35177;45.900;5.946;2023-06-19T02:19:02;97484.69;;;18.36;73.02
49311;BME280;35177;45.900;5.946;2023-06-19T02:21:28;97484.25;;;18.23;73.43
49311;BME280;35177;45.900;5.946;2023-06-19T02:23:54;97481.75;;;18.12;72.77
49311;BME280;35177;45.900;5.946;2023-06-19T02:26:19;97484.06;;;18.07;73.57
49311;BME280;35177;45.900;5.946;2023-06-19T02:28:45;97480.88;;;17.94;74.37
49311;BME280;35177;45.900;5.946;2023-06-19T02:31:10;97477.47;;;18.19;73.15
49311;BME280;35177;45.900;5.946;2023-06-19T02:33:35;97479.56;;;18.25;72.49
49311;BME280;35177;45.900;5.946;2023-06-19T02:36:01;97484.19;;;18.05;73.14
49311;BME280;35177;45.900;5.946;2023-06-19T02:38:28;97485.03;;;18.06;73.25
49311;BME280;35177;45.900;5.946;2023-06-19T02:40:55;97490.84;;;18.01;73.89
49311;BME280;35177;45.900;5.946;2023-06-19T02:43:22;97490.38;;;17.88;74.37
49311;BME280;35177;45.900;5.946;2023-06-19T02:45:48;97480.19;;;17.92;74.45
49311;BME280;35177;45.900;5.946;2023-06-19T02:48:13;97484.75;;;17.82;74.72
49311;BME280;35177;45.900;5.946;2023-06-19T02:50:39;97485.84;;;17.89;73.73
49311;BME280;35177;45.900;5.946;2023-06-19T02:53:04;97495.88;;;18.14;72.45
49311;BME280;35177;45.900;5.946;2023-06-19T02:55:30;97486.13;;;18.13;71.68
49311;BME280;35177;45.900;5.946;2023-06-19T02:57:55;97472.84;;;17.94;73.38
49311;BME280;35177;45.900;5.946;2023-06-19T03:00:21;97476.81;;;18.35;69.77
49311;BME280;35177;45.900;5.946;2023-06-19T03:02:47;97481.09;;;18.28;70.36
49311;BME280;35177;45.900;5.946;2023-06-19T03:05:13;97478.59;;;17.99;73.22
49311;BME280;35177;45.900;5.946;2023-06-19T03:07:42;97475.41;;;17.59;75.65
49311;BME280;35177;45.900;5.946;2023-06-19T03:10:07;97483.50;;;17.40;76.79
49311;BME280;35177;45.900;5.946;2023-06-19T03:12:33;97485.31;;;17.58;75.90
49311;BME280;35177;45.900;5.946;2023-06-19T03:14:58;97481.50;;;17.61;75.44
49311;BME280;35177;45.900;5.946;2023-06-19T03:17:24;97479.50;;;17.63;75.42
49311;BME280;35177;45.900;5.946;2023-06-19T03:19:49;97486.72;;;17.53;76.47
49311;BME280;35177;45.900;5.946;2023-06-19T03:22:15;97493.03;;;17.61;75.63
49311;BME280;35177;45.900;5.946;2023-06-19T03:24:40;97494.97;;;17.69;75.32
49311;BME280;35177;45.900;5.946;2023-06-19T03:27:06;97495.16;;;17.85;74.62
49311;BME280;35177;45.900;5.946;2023-06-19T03:29:31;97493.19;;;17.87;74.66
49311;BME280;35177;45.900;5.946;2023-06-19T03:31:57;97494.88;;;17.88;74.21
49311;BME280;35177;45.900;5.946;2023-06-19T03:34:22;97503.75;;;17.52;75.75
49311;BME280;35177;45.900;5.946;2023-06-19T03:36:48;97508.69;;;17.56;75.67
49311;BME280;35177;45.900;5.946;2023-06-19T03:39:13;97500.34;;;17.50;75.88
49311;BME280;35177;45.900;5.946;2023-06-19T03:41:39;97506.72;;;17.49;76.08
49311;BME280;35177;45.900;5.946;2023-06-19T03:44:04;97508.53;;;17.48;75.48
49311;BME280;35177;45.900;5.946;2023-06-19T03:46:30;97504.97;;;17.20;76.40
49311;BME280;35177;45.900;5.946;2023-06-19T03:48:55;97506.69;;;17.02;77.10
49311;BME280;35177;45.900;5.946;2023-06-19T03:51:21;97515.13;;;17.07;77.30
49311;BME280;35177;45.900;5.946;2023-06-19T03:53:46;97513.50;;;17.33;77.27
49311;BME280;35177;45.900;5.946;2023-06-19T03:56:12;97507.84;;;17.46;76.40
49311;BME280;35177;45.900;5.946;2023-06-19T03:58:37;97517.53;;;17.57;75.39
49311;BME280;35177;45.900;5.946;2023-06-19T04:01:03;97513.47;;;17.43;76.71
49311;BME280;35177;45.900;5.946;2023-06-19T04:03:28;97504.06;;;17.39;75.90
49311;BME280;35177;45.900;5.946;2023-06-19T04:05:54;97503.81;;;17.32;75.99
49311;BME280;35177;45.900;5.946;2023-06-19T04:08:19;97507.34;;;17.33;75.91
49311;BME280;35177;45.900;5.946;2023-06-19T04:10:45;97509.41;;;17.39;75.50
49311;BME280;35177;45.900;5.946;2023-06-19T04:13:11;97511.66;;;17.44;76.09
49311;BME280;35177;45.900;5.946;2023-06-19T04:15:37;97513.03;;;17.48;75.74
49311;BME280;35177;45.900;5.946;2023-06-19T04:18:03;97513.88;;;17.58;75.23
49311;BME280;35177;45.900;5.946;2023-06-19T04:20:28;97515.34;;;17.33;76.60
49311;BME280;35177;45.900;5.946;2023-06-19T04:22:54;97514.06;;;17.37;76.73
49311;BME280;35177;45.900;5.946;2023-06-19T04:25:19;97510.25;;;17.40;76.76
49311;BME280;35177;45.900;5.946;2023-06-19T04:27:45;97512.94;;;17.40;77.21
49311;BME280;35177;45.900;5.946;2023-06-19T04:30:11;97511.06;;;17.50;76.36
49311;BME280;35177;45.900;5.946;2023-06-19T04:32:36;97517.38;;;17.68;75.99
49311;BME280;35177;45.900;5.946;2023-06-19T04:35:09;97507.16;;;17.54;76.37
49311;BME280;35177;45.900;5.946;2023-06-19T04:37:35;97513.91;;;17.38;77.37
49311;BME280;35177;45.900;5.946;2023-06-19T04:40:01;97510.66;;;17.54;77.29
49311;BME280;35177;45.900;5.946;2023-06-19T04:42:27;97508.19;;;17.70;75.36
49311;BME280;35177;45.900;5.946;2023-06-19T04:44:52;97504.94;;;17.76;75.34
49311;BME280;35177;45.900;5.946;2023-06-19T04:47:21;97500.97;;;17.80;76.68
49311;BME280;35177;45.900;5.946;2023-06-19T04:49:47;97497.63;;;17.69;76.73
49311;BME280;35177;45.900;5.946;2023-06-19T04:52:12;97506.06;;;17.74;76.46
49311;BME280;35177;45.900;5.946;2023-06-19T04:54:38;97507.78;;;17.75;76.04
49311;BME280;35177;45.900;5.946;2023-06-19T04:57:04;97498.25;;;17.63;76.87
49311;BME280;35177;45.900;5.946;2023-06-19T04:59:30;97496.34;;;17.73;77.02
49311;BME280;35177;45.900;5.946;2023-06-19T05:01:56;97498.03;;;17.74;77.99
49311;BME280;35177;45.900;5.946;2023-06-19T05:04:22;97499.09;;;17.90;76.91
49311;BME280;35177;45.900;5.946;2023-06-19T05:06:51;97509.56;;;17.84;77.06
49311;BME280;35177;45.900;5.946;2023-06-19T05:09:16;97494.19;;;17.86;76.25
49311;BME280;35177;45.900;5.946;2023-06-19T05:11:42;97499.28;;;18.07;77.31
49311;BME280;35177;45.900;5.946;2023-06-19T05:14:07;97508.91;;;17.99;76.94
49311;BME280;35177;45.900;5.946;2023-06-19T05:16:33;97511.66;;;17.80;76.85
49311;BME280;35177;45.900;5.946;2023-06-19T05:18:59;97511.75;;;17.98;77.25
49311;BME280;35177;45.900;5.946;2023-06-19T05:21:25;97512.06;;;18.13;76.30
49311;BME280;35177;45.900;5.946;2023-06-19T05:23:50;97511.03;;;18.23;75.93
49311;BME280;35177;45.900;5.946;2023-06-19T05:26:18;97517.78;;;18.45;75.36
49311;BME280;35177;45.900;5.946;2023-06-19T05:28:44;97524.13;;;18.44;74.92
49311;BME280;35177;45.900;5.946;2023-06-19T05:31:09;97516.19;;;18.52;76.24
49311;BME280;35177;45.900;5.946;2023-06-19T05:33:35;97513.63;;;18.60;75.80
49311;BME280;35177;45.900;5.946;2023-06-19T05:36:00;97516.97;;;18.80;74.30
49311;BME280;35177;45.900;5.946;2023-06-19T05:38:26;97524.78;;;18.91;73.90
49311;BME280;35177;45.900;5.946;2023-06-19T05:40:53;97523.34;;;18.79;75.57
49311;BME280;35177;45.900;5.946;2023-06-19T05:43:19;97516.84;;;18.81;75.86
49311;BME280;35177;45.900;5.946;2023-06-19T05:45:44;97525.00;;;18.80;75.10
49311;BME280;35177;45.900;5.946;2023-06-19T05:48:10;97521.25;;;18.72;74.56
49311;BME280;35177;45.900;5.946;2023-06-19T05:50:35;97527.16;;;18.76;74.09
49311;BME280;35177;45.900;5.946;2023-06-19T05:53:01;97523.53;;;19.03;73.94
49311;BME280;35177;45.900;5.946;2023-06-19T05:55:26;97528.66;;;19.14;74.73
49311;BME280;35177;45.900;5.946;2023-06-19T05:57:55;97530.25;;;19.24;73.83
49311;BME280;35177;45.900;5.946;2023-06-19T06:00:21;97532.09;;;19.42;72.98
49311;BME280;35177;45.900;5.946;2023-06-19T06:02:48;97529.34;;;19.59;72.33
49311;BME280;35177;45.900;5.946;2023-06-19T06:05:13;97529.91;;;19.71;71.92
49311;BME280;35177;45.900;5.946;2023-06-19T06:07:39;97524.28;;;19.56;73.01
49311;BME280;35177;45.900;5.946;2023-06-19T06:10:05;97524.91;;;19.50;71.84
49311;BME280;35177;45.900;5.946;2023-06-19T06:12:34;97523.34;;;19.39;72.34
49311;BME280;35177;45.900;5.946;2023-06-19T06:15:01;97530.78;;;19.28;72.93
49311;BME280;35177;45.900;5.946;2023-06-19T06:17:27;97527.41;;;19.26;72.38
49311;BME280;35177;45.900;5.946;2023-06-19T06:19:53;97525.91;;;19.23;72.13
49311;BME280;35177;45.900;5.946;2023-06-19T06:22:18;97526.41;;;19.27;72.62
49311;BME280;35177;45.900;5.946;2023-06-19T06:24:44;97521.88;;;19.45;72.10
49311;BME280;35177;45.900;5.946;2023-06-19T06:27:12;97530.09;;;19.44;71.21
49311;BME280;35177;45.900;5.946;2023-06-19T06:29:37;97529.06;;;19.45;71.25
49311;BME280;35177;45.900;5.946;2023-06-19T06:32:07;97530.59;;;19.47;70.13
49311;BME280;35177;45.900;5.946;2023-06-19T06:34:35;97534.09;;;19.65;69.97
49311;BME280;35177;45.900;5.946;2023-06-19T06:37:01;97539.59;;;19.64;71.37
49311;BME280;35177;45.900;5.946;2023-06-19T06:39:26;97541.00;;;19.76;71.47
49311;BME280;35177;45.900;5.946;2023-06-19T06:41:54;97531.88;;;19.94;70.98
49311;BME280;35177;45.900;5.946;2023-06-19T06:44:20;97534.63;;;20.10;70.67
49311;BME280;35177;45.900;5.946;2023-06-19T06:46:45;97536.44;;;20.36;70.07
49311;BME280;35177;45.900;5.946;2023-06-19T06:49:11;97536.81;;;20.49;68.59
49311;BME280;35177;45.900;5.946;2023-06-19T06:51:36;97541.66;;;20.45;67.64
49311;BME280;35177;45.900;5.946;2023-06-19T06:54:02;97549.28;;;20.58;68.92
49311;BME280;35177;45.900;5.946;2023-06-19T06:56:27;97545.91;;;20.64;68.02
49311;BME280;35177;45.900;5.946;2023-06-19T06:58:53;97544.41;;;20.61;68.00
49311;BME280;35177;45.900;5.946;2023-06-19T07:01:18;97542.22;;;20.65;67.26
49311;BME280;35177;45.900;5.946;2023-06-19T07:03:44;97547.63;;;20.65;67.11
49311;BME280;35177;45.900;5.946;2023-06-19T07:06:09;97541.56;;;20.71;67.06
49311;BME280;35177;45.900;5.946;2023-06-19T07:08:35;97540.38;;;20.65;66.34
49311;BME280;35177;45.900;5.946;2023-06-19T07:11:00;97545.75;;;20.65;67.44
49311;BME280;35177;45.900;5.946;2023-06-19T07:13:27;97547.25;;;20.60;68.18
49311;BME280;35177;45.900;5.946;2023-06-19T07:15:52;97557.53;;;20.72;68.03
49311;BME280;35177;45.900;5.946;2023-06-19T07:18:17;97555.69;;;20.89;67.48
49311;BME280;35177;45.900;5.946;2023-06-19T07:20:43;97546.63;;;20.98;66.05
49311;BME280;35177;45.900;5.946;2023-06-19T07:23:09;97559.41;;;20.96;65.82
49311;BME280;35177;45.900;5.946;2023-06-19T07:25:35;97549.31;;;20.90;66.17
49311;BME280;35177;45.900;5.946;2023-06-19T07:28:01;97553.53;;;20.93;67.83
49311;BME280;35177;45.900;5.946;2023-06-19T07:30:26;97565.97;;;20.94;65.52
49311;BME280;35177;45.900;5.946;2023-06-19T07:32:52;97563.13;;;20.95;65.48
49311;BME280;35177;45.900;5.946;2023-06-19T07:35:18;97557.75;;;20.95;65.68
49311;BME280;35177;45.900;5.946;2023-06-19T07:37:44;97560.22;;;20.89;67.84
49311;BME280;35177;45.900;5.946;2023-06-19T07:40:10;97544.41;;;20.77;70.32
49311;BME280;35177;45.900;5.946;2023-06-19T07:42:36;97558.69;;;20.70;70.30
49311;BME280;35177;45.900;5.946;2023-06-19T07:45:01;97559.00;;;20.59;72.20
49311;BME280;35177;45.900;5.946;2023-06-19T07:47:27;97565.72;;;20.55;71.91
49311;BME280;35177;45.900;5.946;2023-06-19T07:49:53;97563.66;;;20.41;71.40
49311;BME280;35177;45.900;5.946;2023-06-19T07:52:18;97562.84;;;20.48;72.95
49311;BME280;35177;45.900;5.946;2023-06-19T07:54:52;97564.69;;;20.48;72.80
49311;BME280;35177;45.900;5.946;2023-06-19T07:57:18;97558.59;;;20.38;72.67
49311;BME280;35177;45.900;5.946;2023-06-19T07:59:43;97565.06;;;20.19;73.54
49311;BME280;35177;45.900;5.946;2023-06-19T08:02:10;97560.81;;;20.08;71.65
49311;BME280;35177;45.900;5.946;2023-06-19T08:04:36;97563.50;;;20.08;74.76
49311;BME280;35177;45.900;5.946;2023-06-19T08:07:01;97574.19;;;20.26;74.09
49311;BME280;35177;45.900;5.946;2023-06-19T08:09:27;97565.81;;;20.29;73.46
49311;BME280;35177;45.900;5.946;2023-06-19T08:11:52;97568.00;;;20.34;74.88
49311;BME280;35177;45.900;5.946;2023-06-19T08:14:18;97558.50;;;20.55;73.94
49311;BME280;35177;45.900;5.946;2023-06-19T08:16:43;97550.97;;;20.75;74.31
49311;BME280;35177;45.900;5.946;2023-06-19T08:19:09;97556.72;;;20.72;74.76
49311;BME280;35177;45.900;5.946;2023-06-19T08:21:34;97553.31;;;20.70;72.91
49311;BME280;35177;45.900;5.946;2023-06-19T08:23:59;97554.84;;;20.81;71.03
49311;BME280;35177;45.900;5.946;2023-06-19T08:26:25;97551.66;;;20.85;70.33
49311;BME280;35177;45.900;5.946;2023-06-19T08:28:50;97543.78;;;20.92;70.76
49311;BME280;35177;45.900;5.946;2023-06-19T08:31:16;97547.28;;;21.00;71.60
49311;BME280;35177;45.900;5.946;2023-06-19T08:33:42;97536.75;;;21.07;72.25
49311;BME280;35177;45.900;5.946;2023-06-19T08:36:07;97532.19;;;21.07;72.32
49311;BME280;35177;45.900;5.946;2023-06-19T08:38:32;97530.47;;;20.98;71.76
49311;BME280;35177;45.900;5.946;2023-06-19T08:40:58;97523.94;;;20.93;72.86
49311;BME280;35177;45.900;5.946;2023-06-19T08:43:24;97525.63;;;21.02;70.71
49311;BME280;35177;45.900;5.946;2023-06-19T08:46:32;97526.13;;;20.97;73.08
49311;BME280;35177;45.900;5.946;2023-06-19T08:48:50;97525.81;;;21.08;72.83
49311;BME280;35177;45.900;5.946;2023-06-19T08:51:16;97514.88;;;21.18;71.59
49311;BME280;35177;45.900;5.946;2023-06-19T08:53:47;97510.66;;;21.23;72.46
49311;BME280;35177;45.900;5.946;2023-06-19T08:56:13;97507.31;;;21.29;71.04
49311;BME280;35177;45.900;5.946;2023-06-19T08:58:39;97507.50;;;21.28;69.88
49311;BME280;35177;45.900;5.946;2023-06-19T09:01:04;97512.53;;;21.23;69.94
49311;BME280;35177;45.900;5.946;2023-06-19T09:03:30;97511.84;;;21.29;68.16
49311;BME280;35177;45.900;5.946;2023-06-19T09:05:55;97500.22;;;21.28;66.25
49311;BME280;35177;45.900;5.946;2023-06-19T09:08:22;97507.94;;;21.48;65.96
49311;BME280;35177;45.900;5.946;2023-06-19T09:11:18;97504.94;;;21.51;63.77
49311;BME280;35177;45.900;5.946;2023-06-19T09:13:45;97501.91;;;21.45;65.58
49311;BME280;35177;45.900;5.946;2023-06-19T09:16:20;97501.19;;;21.52;64.41
49311;BME280;35177;45.900;5.946;2023-06-19T09:18:48;97493.94;;;21.68;63.19
49311;BME280;35177;45.900;5.946;2023-06-19T09:21:20;97496.75;;;21.83;63.69
49311;BME280;35177;45.900;5.946;2023-06-19T09:23:49;97494.03;;;21.91;62.66
49311;BME280;35177;45.900;5.946;2023-06-19T09:26:17;97495.72;;;22.00;63.92
49311;BME280;35177;45.900;5.946;2023-06-19T09:28:44;97489.69;;;21.90;64.64
49311;BME280;35177;45.900;5.946;2023-06-19T09:31:11;97489.53;;;21.83;64.43
49311;BME280;35177;45.900;5.946;2023-06-19T09:33:38;97477.59;;;21.86;64.42
49311;BME280;35177;45.900;5.946;2023-06-19T09:36:05;97484.25;;;21.98;64.46
49311;BME280;35177;45.900;5.946;2023-06-19T09:38:32;97478.97;;;22.12;61.77
49311;BME280;35177;45.900;5.946;2023-06-19T09:41:01;97477.34;;;22.03;61.25
49311;BME280;35177;45.900;5.946;2023-06-19T09:43:38;97483.50;;;22.12;60.76
49311;BME280;35177;45.900;5.946;2023-06-19T09:46:05;97484.69;;;22.18;60.66
49311;BME280;35177;45.900;5.946;2023-06-19T09:48:33;97481.25;;;22.24;61.42
49311;BME280;35177;45.900;5.946;2023-06-19T09:51:10;97482.13;;;22.24;61.98
49311;BME280;35177;45.900;5.946;2023-06-19T09:53:37;97487.47;;;22.32;61.29
49311;BME280;35177;45.900;5.946;2023-06-19T09:56:03;97490.75;;;22.42;59.68
49311;BME280;35177;45.900;5.946;2023-06-19T09:58:29;97482.75;;;22.34;58.73
49311;BME280;35177;45.900;5.946;2023-06-19T10:00:56;97477.13;;;22.44;59.23
49311;BME280;35177;45.900;5.946;2023-06-19T10:03:31;97479.88;;;22.58;57.41
49311;BME280;35177;45.900;5.946;2023-06-19T10:05:57;97485.72;;;22.70;55.71
49311;BME280;35177;45.900;5.946;2023-06-19T10:08:28;97485.31;;;22.81;56.66
49311;BME280;35177;45.900;5.946;2023-06-19T10:10:54;97492.50;;;22.89;56.10
49311;BME280;35177;45.900;5.946;2023-06-19T10:13:20;97489.00;;;23.03;57.80
49311;BME280;35177;45.900;5.946;2023-06-19T10:15:46;97478.66;;;23.29;54.24
49311;BME280;35177;45.900;5.946;2023-06-19T10:18:17;97487.00;;;23.42;53.45
49311;BME280;35177;45.900;5.946;2023-06-19T10:20:45;97484.53;;;23.55;53.83
49311;BME280;35177;45.900;5.946;2023-06-19T10:25:39;97472.56;;;23.49;53.14
49311;BME280;35177;45.900;5.946;2023-06-19T10:28:16;97484.53;;;23.55;53.70
49311;BME280;35177;45.900;5.946;2023-06-19T10:30:42;97482.47;;;24.01;53.29
49311;BME280;35177;45.900;5.946;2023-06-19T10:33:07;97485.63;;;24.34;53.40
49311;BME280;35177;45.900;5.946;2023-06-19T10:35:40;97494.16;;;24.16;53.00
49311;BME280;35177;45.900;5.946;2023-06-19T10:38:07;97483.84;;;24.26;51.99
49311;BME280;35177;45.900;5.946;2023-06-19T10:40:32;97496.66;;;24.17;50.66
49311;BME280;35177;45.900;5.946;2023-06-19T10:42:58;97499.34;;;24.32;48.08
49311;BME280;35177;45.900;5.946;2023-06-19T10:45:23;97493.50;;;24.50;47.12
49311;BME280;35177;45.900;5.946;2023-06-19T10:47:54;97497.47;;;24.68;46.70
49311;BME280;35177;45.900;5.946;2023-06-19T10:50:20;97484.94;;;24.82;48.20
49311;BME280;35177;45.900;5.946;2023-06-19T10:52:46;97477.91;;;24.52;47.47
49311;BME280;35177;45.900;5.946;2023-06-19T10:55:14;97478.34;;;24.34;48.52
49311;BME280;35177;45.900;5.946;2023-06-19T10:57:44;97473.78;;;24.35;49.07
49311;BME280;35177;45.900;5.946;2023-06-19T11:00:10;97472.50;;;24.52;49.10
49311;BME280;35177;45.900;5.946;2023-06-19T11:02:40;97459.53;;;25.53;46.48
49311;BME280;35177;45.900;5.946;2023-06-19T11:05:11;97452.13;;;26.09;45.52
49311;BME280;35177;45.900;5.946;2023-06-19T11:07:37;97450.41;;;26.42;43.84
49311;BME280;35177;45.900;5.946;2023-06-19T11:10:03;97444.41;;;26.60;44.14
49311;BME280;35177;45.900;5.946;2023-06-19T11:12:31;97444.44;;;26.66;41.55
49311;BME280;35177;45.900;5.946;2023-06-19T11:14:57;97441.13;;;26.77;43.42
49311;BME280;35177;45.900;5.946;2023-06-19T11:17:22;97432.81;;;27.25;39.43
49311;BME280;35177;45.900;5.946;2023-06-19T11:19:52;97431.56;;;27.40;42.62
49311;BME280;35177;45.900;5.946;2023-06-19T11:22:18;97434.06;;;27.55;41.20
49311;BME280;35177;45.900;5.946;2023-06-19T11:24:44;97421.47;;;27.80;41.55
49311;BME280;35177;45.900;5.946;2023-06-19T11:27:19;97424.19;;;27.80;40.90
49311;BME280;35177;45.900;5.946;2023-06-19T11:29:55;97415.44;;;27.52;40.36
49311;BME280;35177;45.900;5.946;2023-06-19T11:32:21;97413.53;;;27.66;39.27
49311;BME280;35177;45.900;5.946;2023-06-19T11:34:50;97417.19;;;27.97;40.68
49311;BME280;35177;45.900;5.946;2023-06-19T11:37:18;97403.03;;;27.82;41.27
49311;BME280;35177;45.900;5.946;2023-06-19T11:39:47;97409.16;;;28.29;40.72
49311;BME280;35177;45.900;5.946;2023-06-19T11:42:13;97399.88;;;28.43;39.46
49311;BME280;35177;45.900;5.946;2023-06-19T11:44:55;97393.75;;;28.47;41.45
49311;BME280;35177;45.900;5.946;2023-06-19T11:47:21;97400.47;;;28.82;41.27
49311;BME280;35177;45.900;5.946;2023-06-19T11:49:50;97399.88;;;28.74;38.75
49311;BME280;35177;45.900;5.946;2023-06-19T11:52:16;97384.56;;;27.97;39.04
49311;BME280;35177;45.900;5.946;2023-06-19T11:54:41;97387.41;;;28.66;39.89
49311;BME280;35177;45.900;5.946;2023-06-19T11:57:09;97375.00;;;29.26;38.76
49311;BME280;35177;45.900;5.946;2023-06-19T11:59:41;97382.31;;;29.50;39.39
49311;BME280;35177;45.900;5.946;2023-06-19T12:02:08;97367.16;;;29.54;37.83
49311;BME280;35177;45.900;5.946;2023-06-19T12:04:34;97373.44;;;29.55;39.38
49311;BME280;35177;45.900;5.946;2023-06-19T12:07:00;97371.25;;;29.45;38.93
49311;BME280;35177;45.900;5.946;2023-06-19T12:09:26;97373.38;;;29.62;40.08
49311;BME280;35177;45.900;5.946;2023-06-19T12:11:51;97369.56;;;29.63;39.49
49311;BME280;35177;45.900;5.946;2023-06-19T12:14:17;97372.19;;;29.94;40.06
49311;BME280;35177;45.900;5.946;2023-06-19T12:16:47;97364.09;;;30.35;35.99
49311;BME280;35177;45.900;5.946;2023-06-19T12:19:13;97355.31;;;30.15;34.29
49311;BME280;35177;45.900;5.946;2023-06-19T12:21:38;97361.09;;;29.71;36.72
49311;BME280;35177;45.900;5.946;2023-06-19T12:24:04;97365.19;;;29.98;36.72
49311;BME280;35177;45.900;5.946;2023-06-19T12:26:30;97361.53;;;30.22;36.49
49311;BME280;35177;45.900;5.946;2023-06-19T12:28:55;97355.25;;;29.67;37.09
49311;BME280;35177;45.900;5.946;2023-06-19T12:31:21;97359.66;;;29.68;36.74
49311;BME280;35177;45.900;5.946;2023-06-19T12:33:46;97355.19;;;29.74;35.71
49311;BME280;35177;45.900;5.946;2023-06-19T12:36:14;97356.84;;;29.38;37.32
49311;BME280;35177;45.900;5.946;2023-06-19T12:38:40;97343.75;;;29.83;36.28
49311;BME280;35177;45.900;5.946;2023-06-19T12:41:06;97340.03;;;30.44;34.93
49311;BME280;35177;45.900;5.946;2023-06-19T12:43:32;97342.69;;;30.02;36.40
49311;BME280;35177;45.900;5.946;2023-06-19T12:45:58;97331.19;;;29.82;36.58
49311;BME280;35177;45.900;5.946;2023-06-19T12:48:27;97324.78;;;29.70;36.67
49311;BME280;35177;45.900;5.946;2023-06-19T12:50:53;97323.91;;;29.94;36.99
49311;BME280;35177;45.900;5.946;2023-06-19T12:53:19;97322.09;;;30.18;33.86
49311;BME280;35177;45.900;5.946;2023-06-19T12:55:45;97319.75;;;30.21;33.07
49311;BME280;35177;45.900;5.946;2023-06-19T12:58:22;97326.53;;;30.60;32.80
49311;BME280;35177;45.900;5.946;2023-06-19T13:00:48;97323.69;;;30.67;31.55
49311;BME280;35177;45.900;5.946;2023-06-19T13:03:13;97329.75;;;30.57;33.98